Time;durP1;ratioP1;P1;durP2;ratioP2;P2;SDS_P1;SDS_P2;PMS_P1;PMS_P2;Temp;Humidity;BMP_temperature;BMP_pressure;BME280_temperature;BME280_humidity;BME280_pressure;Samples;Min_cycle;Max_cycle;Signal;HPM_P1;HPM_P2
2021/12/27 00:01:19;;;;;;;27.70;19.77;;;5.90;99.90;;;;;;2613818;47;20478;-79
2021/12/27 00:03:45;;;;;;;29.93;19.73;;;5.70;99.90;;;;;;2614414;39;21209;-79
2021/12/27 00:06:11;;;;;;;22.93;17.97;;;4.80;99.90;;;;;;2614161;47;20956;-79
2021/12/27 00:08:42;;;;;;;29.97;17.90;;;5.00;99.90;;;;;;2614331;47;20451;-79
2021/12/27 00:11:09;;;;;;;24.00;18.13;;;5.20;99.90;;;;;;2611342;54;20387;-76
2021/12/27 00:13:36;;;;;;;21.23;18.30;;;5.50;99.90;;;;;;2611585;54;20427;-79
2021/12/27 00:16:02;;;;;;;28.00;19.07;;;5.70;99.90;;;;;;2614146;54;20431;-79
2021/12/27 00:18:28;;;;;;;26.90;19.57;;;5.80;99.90;;;;;;2614387;54;20395;-79
2021/12/27 00:20:55;;;;;;;23.93;17.80;;;5.90;99.90;;;;;;2613496;54;20501;-80
2021/12/27 00:23:20;;;;;;;25.10;19.20;;;6.00;99.90;;;;;;2614010;54;20175;-78
2021/12/27 00:25:46;;;;;;;23.27;18.00;;;5.30;99.90;;;;;;2614322;39;20887;-79
2021/12/27 00:28:12;;;;;;;26.17;20.07;;;5.20;99.90;;;;;;2614285;54;20398;-78
2021/12/27 00:30:38;;;;;;;25.73;18.30;;;5.20;99.90;;;;;;2613658;54;20180;-79
2021/12/27 00:33:04;;;;;;;27.93;19.57;;;5.40;99.90;;;;;;2612664;54;20507;-80
2021/12/27 00:35:32;;;;;;;24.60;19.50;;;5.50;99.90;;;;;;2614335;39;20819;-79
2021/12/27 00:37:59;;;;;;;27.43;20.20;;;5.50;99.90;;;;;;2613839;39;21065;-80
2021/12/27 00:40:25;;;;;;;24.73;18.60;;;5.50;99.90;;;;;;2614693;54;20411;-76
2021/12/27 00:42:51;;;;;;;24.43;19.37;;;5.50;99.90;;;;;;2613884;54;20421;-78
2021/12/27 00:45:18;;;;;;;34.00;20.17;;;5.30;99.90;;;;;;2614752;54;20404;-79
2021/12/27 00:47:44;;;;;;;24.00;18.77;;;5.40;99.90;;;;;;2614174;54;20390;-79
2021/12/27 00:50:11;;;;;;;22.40;18.33;;;5.30;99.90;;;;;;2614247;39;20740;-79
2021/12/27 00:52:37;;;;;;;29.33;19.83;;;5.30;99.90;;;;;;2613907;54;20415;-78
2021/12/27 00:55:14;;;;;;;31.40;19.30;;;4.80;99.90;;;;;;2614297;54;20514;-78
2021/12/27 00:57:41;;;;;;;25.50;20.33;;;5.00;99.90;;;;;;2612843;39;20922;-78
2021/12/27 01:00:10;;;;;;;37.03;21.93;;;4.80;99.90;;;;;;2615345;39;20819;-81
2021/12/27 01:02:36;;;;;;;30.60;21.60;;;4.80;99.90;;;;;;2614652;39;20792;-78
2021/12/27 01:05:02;;;;;;;29.33;19.07;;;4.80;99.90;;;;;;2614342;54;20453;-76
2021/12/27 01:07:28;;;;;;;28.70;19.30;;;5.00;99.90;;;;;;2614479;54;20389;-78
2021/12/27 01:18:07;;;;;;;27.03;19.77;;;5.00;99.90;;;;;;2612969;54;20399;-78
2021/12/27 01:20:35;;;;;;;27.33;19.33;;;5.30;99.90;;;;;;2613055;54;20535;-77
2021/12/27 01:23:01;;;;;;;24.37;18.93;;;5.80;99.90;;;;;;2613015;54;20957;-77
2021/12/27 01:25:27;;;;;;;28.83;19.00;;;5.90;99.90;;;;;;2613009;54;20411;-80
2021/12/27 01:27:53;;;;;;;25.23;18.00;;;5.80;99.90;;;;;;2613169;54;20955;-80
2021/12/27 01:30:21;;;;;;;19.47;16.17;;;5.90;99.90;;;;;;2612671;54;20482;-80
2021/12/27 01:32:56;;;;;;;22.10;16.33;;;6.20;99.90;;;;;;2611423;54;20452;-81
2021/12/27 01:35:23;;;;;;;23.97;17.53;;;6.10;99.90;;;;;;2612959;54;20988;-79
2021/12/27 01:37:50;;;;;;;21.77;16.13;;;6.30;99.90;;;;;;2612620;54;20911;-78
2021/12/27 01:40:17;;;;;;;21.33;15.00;;;6.40;99.90;;;;;;2612052;54;20498;-78
2021/12/27 01:43:11;;;;;;;19.10;15.27;;;6.40;99.90;;;;;;2612474;54;20395;-80
2021/12/27 01:45:46;;;;;;;22.23;15.90;;;6.40;99.90;;;;;;2613941;39;20489;-79
2021/12/27 01:48:17;;;;;;;22.73;17.13;;;6.40;99.90;;;;;;2612363;54;20419;-79
2021/12/27 01:50:44;;;;;;;20.70;17.20;;;6.60;99.90;;;;;;2612522;54;20535;-79
2021/12/27 01:53:12;;;;;;;17.07;12.53;;;6.90;99.90;;;;;;2613815;54;20896;-79
2021/12/27 01:55:38;;;;;;;14.07;11.00;;;6.90;99.90;;;;;;2613440;54;20495;-77
2021/12/27 01:58:05;;;;;;;12.03;10.73;;;6.80;99.90;;;;;;2614413;54;20494;-79
2021/12/27 02:00:31;;;;;;;10.13;9.23;;;6.90;99.90;;;;;;2613500;47;20445;-78
2021/12/27 02:02:57;;;;;;;11.03;9.37;;;6.50;99.90;;;;;;2613608;54;20395;-77
2021/12/27 02:05:23;;;;;;;9.17;8.27;;;6.70;99.90;;;;;;2613277;47;21018;-79
2021/12/27 02:07:48;;;;;;;11.00;8.60;;;6.50;99.90;;;;;;2613212;54;20148;-78
2021/12/27 02:10:15;;;;;;;8.53;7.73;;;6.10;99.90;;;;;;2613036;47;20187;-77
2021/12/27 02:12:43;;;;;;;8.37;7.50;;;6.60;99.90;;;;;;2614506;54;20190;-79
2021/12/27 02:15:10;;;;;;;10.10;9.10;;;6.80;99.90;;;;;;2614341;54;20973;-80
2021/12/27 02:17:38;;;;;;;11.10;7.57;;;6.70;99.90;;;;;;2614057;54;20395;-79
2021/12/27 02:20:09;;;;;;;8.47;7.57;;;6.50;99.90;;;;;;2614054;54;20423;-79
2021/12/27 02:22:37;;;;;;;8.70;7.87;;;6.50;99.90;;;;;;2613819;54;20403;-79
2021/12/27 02:25:07;;;;;;;9.17;8.37;;;6.50;99.90;;;;;;2614932;54;20411;-78
2021/12/27 02:27:34;;;;;;;10.93;9.20;;;6.50;99.90;;;;;;2612846;47;20447;-80
2021/12/27 02:30:01;;;;;;;9.10;8.20;;;6.50;99.90;;;;;;2614521;54;21129;-79
2021/12/27 02:32:26;;;;;;;9.43;8.30;;;6.70;99.90;;;;;;2614159;54;20395;-78
2021/12/27 02:34:53;;;;;;;8.67;7.80;;;7.10;99.90;;;;;;2615607;54;20380;-79
2021/12/27 02:37:18;;;;;;;7.67;7.07;;;7.30;99.90;;;;;;2614886;54;20385;-77
2021/12/27 02:39:45;;;;;;;9.13;7.50;;;6.50;99.90;;;;;;2614874;54;20419;-79
2021/12/27 02:42:19;;;;;;;8.47;7.77;;;6.20;99.90;;;;;;2613107;54;20162;-79
2021/12/27 02:44:46;;;;;;;8.90;8.00;;;6.10;99.90;;;;;;2613965;39;20831;-79
2021/12/27 02:47:15;;;;;;;9.47;6.97;;;6.30;99.90;;;;;;2614443;54;20411;-77
2021/12/27 02:49:40;;;;;;;8.30;7.23;;;6.20;99.90;;;;;;2614600;39;20891;-79
2021/12/27 02:52:07;;;;;;;9.20;7.53;;;6.30;99.90;;;;;;2613810;54;20408;-79
2021/12/27 02:54:32;;;;;;;8.17;7.37;;;6.30;99.90;;;;;;2614169;54;20647;-79
2021/12/27 02:56:58;;;;;;;9.40;8.20;;;6.10;99.90;;;;;;2614908;54;20383;-80
2021/12/27 02:59:24;;;;;;;8.60;7.70;;;6.10;99.90;;;;;;2614658;54;20238;-81
2021/12/27 03:01:50;;;;;;;8.37;7.50;;;6.20;99.90;;;;;;2614280;39;21148;-79
2021/12/27 03:04:15;;;;;;;9.70;8.80;;;6.20;99.90;;;;;;2614042;54;20167;-79
2021/12/27 03:06:41;;;;;;;7.80;7.03;;;6.30;99.90;;;;;;2615084;54;20152;-78
2021/12/27 03:09:07;;;;;;;10.77;8.00;;;6.00;99.90;;;;;;2614518;47;20203;-79
2021/12/27 03:11:33;;;;;;;9.43;8.00;;;6.40;99.90;;;;;;2614640;54;20197;-78
2021/12/27 03:13:58;;;;;;;8.03;6.90;;;6.50;99.90;;;;;;2614451;39;21225;-79
2021/12/27 03:16:24;;;;;;;7.80;6.73;;;6.70;99.90;;;;;;2614153;54;20151;-79
2021/12/27 03:18:53;;;;;;;8.10;7.20;;;6.60;99.90;;;;;;2614749;54;20666;-79
2021/12/27 03:21:20;;;;;;;8.13;7.40;;;6.30;99.90;;;;;;2612271;54;20186;-78
2021/12/27 03:23:47;;;;;;;7.93;7.17;;;6.30;99.90;;;;;;2613868;54;20427;-79
2021/12/27 03:26:14;;;;;;;7.60;6.90;;;6.20;99.90;;;;;;2615560;54;20953;-80
2021/12/27 03:28:41;;;;;;;7.67;6.80;;;6.20;99.90;;;;;;2615587;54;20411;-79
2021/12/27 03:31:09;;;;;;;8.30;7.47;;;6.40;99.90;;;;;;2615903;54;21067;-77
2021/12/27 03:33:35;;;;;;;7.47;6.77;;;6.10;99.90;;;;;;2614867;54;20499;-78
2021/12/27 03:36:03;;;;;;;8.53;7.63;;;6.40;99.90;;;;;;2614796;54;20442;-79
2021/12/27 03:38:33;;;;;;;8.50;7.63;;;6.60;99.90;;;;;;2615750;54;20421;-79
2021/12/27 03:41:00;;;;;;;6.80;6.20;;;6.60;99.90;;;;;;2613628;54;20399;-78
2021/12/27 03:43:26;;;;;;;7.93;7.20;;;6.90;99.90;;;;;;2617474;54;21082;-77
2021/12/27 03:45:52;;;;;;;8.07;6.73;;;6.70;99.90;;;;;;2618544;54;20399;-77
2021/12/27 03:48:18;;;;;;;7.70;7.00;;;6.50;99.90;;;;;;2617237;54;20390;-78
2021/12/27 03:50:44;;;;;;;8.07;7.27;;;6.40;99.90;;;;;;2614277;47;20972;-80
2021/12/27 03:53:10;;;;;;;7.40;6.70;;;6.60;99.90;;;;;;2614922;54;20427;-79
2021/12/27 03:55:37;;;;;;;8.57;7.70;;;6.80;99.90;;;;;;2615088;54;20415;-79
2021/12/27 03:58:23;;;;;;;8.33;7.53;;;6.80;99.90;;;;;;2613696;39;20791;-78
2021/12/27 04:01:14;;;;;;;7.10;6.40;;;7.20;99.90;;;;;;2614974;54;20439;-79
2021/12/27 04:03:40;;;;;;;8.20;7.40;;;6.60;99.90;;;;;;2614493;54;20408;-79
2021/12/27 04:06:06;;;;;;;8.17;6.97;;;6.80;99.90;;;;;;2614957;54;20491;-80
2021/12/27 04:08:32;;;;;;;8.10;7.23;;;6.70;99.90;;;;;;2614938;54;20419;-79
2021/12/27 04:10:58;;;;;;;9.57;8.53;;;6.60;99.90;;;;;;2614611;39;20568;-79
2021/12/27 04:13:24;;;;;;;7.53;6.83;;;6.40;99.90;;;;;;2613706;54;20503;-79
2021/12/27 04:15:51;;;;;;;9.57;8.70;;;6.20;99.90;;;;;;2613700;54;20155;-78
2021/12/27 04:18:17;;;;;;;12.00;10.13;;;6.30;99.90;;;;;;2613084;54;20491;-79
2021/12/27 04:20:44;;;;;;;9.60;8.67;;;6.80;99.90;;;;;;2611396;54;20474;-79
2021/12/27 04:23:10;;;;;;;11.43;8.70;;;7.00;99.90;;;;;;2614245;54;20428;-80
2021/12/27 04:25:36;;;;;;;10.13;8.33;;;6.60;99.90;;;;;;2615280;39;21161;-79
2021/12/27 04:28:02;;;;;;;11.20;9.30;;;6.80;99.90;;;;;;2614356;54;20395;-79
2021/12/27 04:30:28;;;;;;;9.23;8.33;;;6.50;99.90;;;;;;2615166;39;20985;-78
2021/12/27 04:32:54;;;;;;;9.57;8.20;;;6.20;99.90;;;;;;2612847;54;20397;-80
2021/12/27 04:35:20;;;;;;;10.23;8.57;;;6.30;99.90;;;;;;2614289;54;20155;-78
2021/12/27 04:37:47;;;;;;;8.87;7.67;;;6.40;99.90;;;;;;2613844;54;20170;-79
2021/12/27 04:40:15;;;;;;;9.03;7.80;;;6.60;99.90;;;;;;2613670;54;20402;-78
2021/12/27 04:42:44;;;;;;;9.57;8.03;;;6.30;99.90;;;;;;2614392;54;20413;-80
2021/12/27 04:45:11;;;;;;;10.90;7.37;;;6.80;99.90;;;;;;2614669;54;20423;-78
2021/12/27 04:47:38;;;;;;;8.10;7.30;;;6.80;99.90;;;;;;2613947;54;20404;-76
2021/12/27 04:50:04;;;;;;;8.23;7.33;;;6.90;99.90;;;;;;2612841;54;20363;-80
2021/12/27 04:52:30;;;;;;;7.70;6.93;;;7.20;99.90;;;;;;2613596;54;20487;-83
2021/12/27 04:54:56;;;;;;;8.33;7.50;;;7.50;99.90;;;;;;2614242;54;20414;-80
2021/12/27 04:57:22;;;;;;;8.67;7.77;;;7.20;99.90;;;;;;2613781;47;20790;-80
2021/12/27 04:59:48;;;;;;;8.87;7.97;;;7.50;99.90;;;;;;2613730;39;20575;-79
2021/12/27 05:02:13;;;;;;;8.67;7.77;;;7.00;99.90;;;;;;2613309;54;20396;-79
2021/12/27 05:04:41;;;;;;;7.07;6.40;;;6.80;99.90;;;;;;2614106;52;20411;-79
2021/12/27 05:07:06;;;;;;;7.37;6.77;;;6.60;99.90;;;;;;2612968;31;20873;-79
2021/12/27 05:09:32;;;;;;;8.13;6.70;;;6.20;99.90;;;;;;2613946;54;20402;-78
2021/12/27 05:11:58;;;;;;;9.20;7.37;;;6.30;99.90;;;;;;2612605;54;21248;-79
2021/12/27 05:14:24;;;;;;;8.47;7.67;;;6.50;99.90;;;;;;2613555;54;20428;-81
2021/12/27 05:16:50;;;;;;;8.17;7.37;;;6.80;99.90;;;;;;2613557;54;20154;-78
2021/12/27 05:19:16;;;;;;;7.47;6.77;;;6.80;99.90;;;;;;2613942;47;20399;-79
2021/12/27 05:21:41;;;;;;;8.40;7.60;;;6.80;99.90;;;;;;2613237;47;20213;-80
2021/12/27 05:24:07;;;;;;;9.13;7.30;;;7.00;99.90;;;;;;2613351;54;20689;-76
2021/12/27 05:26:33;;;;;;;8.13;7.27;;;7.10;99.90;;;;;;2613812;54;20198;-79
2021/12/27 05:28:59;;;;;;;8.30;7.17;;;7.20;99.90;;;;;;2614518;54;20403;-79
2021/12/27 05:31:25;;;;;;;7.43;6.80;;;7.10;99.90;;;;;;2613630;46;20521;-78
2021/12/27 05:33:51;;;;;;;8.00;6.67;;;7.10;99.90;;;;;;2614251;54;20668;-79
2021/12/27 05:36:17;;;;;;;10.23;7.50;;;7.30;99.90;;;;;;2614130;54;20143;-79
2021/12/27 05:38:43;;;;;;;7.43;6.73;;;7.40;99.90;;;;;;2612530;54;20986;-78
2021/12/27 05:41:10;;;;;;;8.13;7.33;;;7.70;99.90;;;;;;2613388;47;20991;-76
2021/12/27 05:43:35;;;;;;;8.50;7.70;;;7.80;99.90;;;;;;2613951;54;20161;-80
2021/12/27 05:46:02;;;;;;;7.80;6.77;;;7.20;99.90;;;;;;2613514;54;20391;-77
2021/12/27 05:48:28;;;;;;;9.93;7.00;;;6.90;99.90;;;;;;2613540;54;20146;-76
2021/12/27 05:50:54;;;;;;;6.90;6.30;;;6.30;99.90;;;;;;2612198;54;20438;-76
2021/12/27 05:53:20;;;;;;;7.87;6.63;;;6.60;99.90;;;;;;2613342;54;20402;-79
2021/12/27 05:55:46;;;;;;;8.87;7.10;;;7.20;99.90;;;;;;2614211;54;20395;-77
2021/12/27 05:58:12;;;;;;;9.10;7.67;;;7.50;99.90;;;;;;2613130;47;20431;-79
2021/12/27 06:00:39;;;;;;;7.93;7.20;;;7.70;99.90;;;;;;2612051;54;20397;-76
2021/12/27 06:03:05;;;;;;;8.40;7.50;;;7.90;99.90;;;;;;2613871;54;20738;-78
2021/12/27 06:05:31;;;;;;;8.73;7.83;;;7.90;99.90;;;;;;2613551;50;20415;-77
2021/12/27 06:07:57;;;;;;;8.90;7.63;;;7.60;99.90;;;;;;2613612;47;20427;-79
2021/12/27 06:10:23;;;;;;;8.60;7.60;;;7.20;99.90;;;;;;2613100;47;20430;-79
2021/12/27 06:12:49;;;;;;;8.83;7.97;;;7.00;99.90;;;;;;2613197;54;20474;-76
2021/12/27 06:15:15;;;;;;;10.47;9.13;;;6.50;99.90;;;;;;2614224;54;20149;-78
2021/12/27 06:17:42;;;;;;;8.97;8.07;;;6.30;99.90;;;;;;2612454;47;20414;-79
2021/12/27 06:20:11;;;;;;;7.97;7.17;;;6.00;99.90;;;;;;2613903;54;20403;-78
2021/12/27 06:22:40;;;;;;;8.93;8.03;;;6.10;99.90;;;;;;2613617;54;20431;-78
2021/12/27 06:25:06;;;;;;;8.00;7.20;;;6.50;99.90;;;;;;2614190;47;20411;-79
2021/12/27 06:27:33;;;;;;;7.10;6.30;;;6.60;99.90;;;;;;2612962;54;20461;-79
2021/12/27 06:29:59;;;;;;;10.03;8.53;;;6.50;99.90;;;;;;2614435;54;20458;-76
2021/12/27 06:32:25;;;;;;;9.37;8.47;;;6.30;99.90;;;;;;2613167;47;20942;-79
2021/12/27 06:34:51;;;;;;;11.47;7.63;;;6.50;99.90;;;;;;2613098;47;20439;-79
2021/12/27 06:37:17;;;;;;;8.80;7.47;;;6.30;99.90;;;;;;2613332;54;20418;-79
2021/12/27 06:39:43;;;;;;;8.00;7.20;;;6.40;99.90;;;;;;2613170;54;20162;-80
2021/12/27 06:42:09;;;;;;;10.10;8.20;;;6.50;99.90;;;;;;2613702;54;20455;-77
2021/12/27 06:44:35;;;;;;;9.73;8.70;;;6.60;99.90;;;;;;2613763;54;20155;-78
2021/12/27 06:47:01;;;;;;;9.57;7.67;;;6.10;99.90;;;;;;2613326;47;20169;-76
2021/12/27 06:49:28;;;;;;;7.93;6.83;;;6.30;99.90;;;;;;2613430;50;20427;-79
2021/12/27 06:51:54;;;;;;;8.87;7.97;;;6.40;99.90;;;;;;2613007;47;20451;-79
2021/12/27 06:54:20;;;;;;;8.77;7.50;;;6.70;99.90;;;;;;2614631;39;21203;-80
2021/12/27 06:56:46;;;;;;;10.70;7.67;;;6.70;99.90;;;;;;2614019;54;20399;-79
2021/12/27 06:59:13;;;;;;;9.10;8.03;;;6.50;99.90;;;;;;2612494;54;20493;-78
2021/12/27 07:01:39;;;;;;;12.57;8.30;;;6.50;99.90;;;;;;2613205;54;20986;-78
2021/12/27 07:04:05;;;;;;;10.17;8.83;;;6.70;99.90;;;;;;2614139;31;20827;-79
2021/12/27 07:06:30;;;;;;;11.03;9.07;;;6.50;99.90;;;;;;2614080;54;20399;-79
2021/12/27 07:08:57;;;;;;;8.60;7.70;;;6.40;99.90;;;;;;2615201;39;21229;-78
2021/12/27 07:11:23;;;;;;;8.90;7.23;;;6.60;99.90;;;;;;2612989;54;20158;-80
2021/12/27 07:13:48;;;;;;;13.37;8.83;;;6.50;99.90;;;;;;2615486;54;20428;-77
2021/12/27 07:16:14;;;;;;;7.73;6.30;;;6.50;99.90;;;;;;2614587;54;20420;-78
2021/12/27 07:18:40;;;;;;;8.27;7.00;;;6.50;99.90;;;;;;2613448;54;20167;-78
2021/12/27 07:21:06;;;;;;;8.10;7.30;;;6.80;99.90;;;;;;2614668;39;20940;-78
2021/12/27 07:23:32;;;;;;;9.80;8.50;;;6.70;99.90;;;;;;2614090;46;20162;-78
2021/12/27 07:25:58;;;;;;;9.60;8.40;;;6.80;99.90;;;;;;2614163;54;20209;-78
2021/12/27 07:28:24;;;;;;;12.30;8.13;;;6.80;99.90;;;;;;2613828;39;20787;-77
2021/12/27 07:30:50;;;;;;;9.33;7.50;;;6.70;99.90;;;;;;2614472;54;20412;-78
2021/12/27 07:33:16;;;;;;;8.97;7.97;;;6.70;99.90;;;;;;2612315;54;21132;-79
2021/12/27 07:35:42;;;;;;;9.13;8.10;;;7.00;99.90;;;;;;2611089;54;20398;-79
2021/12/27 07:38:08;;;;;;;10.63;8.27;;;7.10;99.90;;;;;;2612950;54;20159;-78
2021/12/27 07:40:34;;;;;;;9.00;8.20;;;7.00;99.90;;;;;;2614563;54;20551;-78
2021/12/27 07:43:00;;;;;;;10.70;8.53;;;7.00;99.90;;;;;;2613978;54;20263;-79
2021/12/27 07:45:26;;;;;;;8.87;7.90;;;7.40;99.90;;;;;;2613718;54;20420;-78
2021/12/27 07:47:52;;;;;;;7.13;6.43;;;7.50;99.90;;;;;;2613767;39;20798;-78
2021/12/27 07:50:19;;;;;;;10.03;8.30;;;7.30;99.90;;;;;;2609801;47;20426;-77
2021/12/27 07:52:45;;;;;;;8.20;7.40;;;7.20;99.90;;;;;;2611687;47;20527;-79
2021/12/27 07:55:11;;;;;;;10.13;7.60;;;7.20;99.90;;;;;;2612786;54;20398;-78
2021/12/27 07:57:37;;;;;;;10.10;7.40;;;7.00;99.90;;;;;;2613008;47;20917;-76
2021/12/27 08:00:06;;;;;;;11.73;7.33;;;7.30;99.90;;;;;;2613818;54;20411;-77
2021/12/27 08:02:36;;;;;;;8.20;7.40;;;7.90;99.90;;;;;;2613845;54;20631;-79
2021/12/27 08:05:03;;;;;;;7.70;6.90;;;8.50;99.90;;;;;;2614321;54;20398;-79
2021/12/27 08:07:28;;;;;;;10.70;7.63;;;8.80;99.90;;;;;;2613978;54;20424;-78
2021/12/27 08:09:54;;;;;;;7.90;7.10;;;8.20;99.90;;;;;;2610127;47;21051;-79
2021/12/27 08:12:20;;;;;;;8.00;7.20;;;8.20;99.90;;;;;;2613476;51;20415;-80
2021/12/27 08:14:46;;;;;;;9.57;7.87;;;8.40;99.90;;;;;;2614408;54;20185;-80
2021/12/27 08:17:13;;;;;;;9.10;7.93;;;8.50;99.90;;;;;;2613413;47;20414;-80
2021/12/27 08:19:39;;;;;;;9.10;6.73;;;8.40;99.90;;;;;;2613581;54;20171;-78
2021/12/27 08:22:05;;;;;;;9.63;7.17;;;8.30;99.90;;;;;;2613344;46;20434;-80
2021/12/27 08:24:30;;;;;;;7.83;7.10;;;8.20;99.90;;;;;;2613539;39;20587;-79
2021/12/27 08:26:56;;;;;;;8.73;7.37;;;8.40;99.90;;;;;;2613530;54;20418;-79
2021/12/27 08:29:22;;;;;;;7.90;7.20;;;8.60;99.90;;;;;;2613994;46;20178;-79
2021/12/27 08:31:48;;;;;;;6.93;6.23;;;8.90;99.90;;;;;;2613260;54;20534;-80
2021/12/27 08:34:14;;;;;;;7.33;6.60;;;8.40;99.90;;;;;;2614834;39;20579;-79
2021/12/27 08:36:40;;;;;;;7.90;6.80;;;8.30;99.90;;;;;;2612712;54;20165;-79
2021/12/27 08:39:06;;;;;;;7.40;6.80;;;8.30;99.90;;;;;;2614245;39;20558;-78
2021/12/27 08:41:32;;;;;;;7.40;6.60;;;8.90;99.90;;;;;;2611108;54;20262;-80
2021/12/27 08:44:01;;;;;;;7.30;6.70;;;9.30;99.90;;;;;;2613074;39;20890;-79
2021/12/27 08:46:27;;;;;;;7.73;6.90;;;9.40;99.90;;;;;;2613751;54;20419;-80
2021/12/27 08:48:52;;;;;;;8.23;7.20;;;9.50;99.90;;;;;;2608528;46;20424;-78
2021/12/27 08:51:18;;;;;;;8.27;7.40;;;9.40;99.90;;;;;;2612900;54;21018;-81
2021/12/27 08:53:44;;;;;;;14.03;7.37;;;8.60;99.90;;;;;;2613150;47;20189;-77
2021/12/27 08:56:10;;;;;;;8.60;7.70;;;8.20;99.90;;;;;;2613231;39;20870;-77
2021/12/27 08:58:37;;;;;;;7.20;6.27;;;8.40;99.90;;;;;;2613210;54;20415;-79
2021/12/27 09:01:02;;;;;;;7.27;6.57;;;8.20;99.90;;;;;;2611871;54;20405;-78
2021/12/27 09:03:28;;;;;;;8.53;6.43;;;8.40;99.90;;;;;;2613343;39;20833;-80
2021/12/27 09:05:54;;;;;;;6.63;6.03;;;8.50;99.90;;;;;;2613911;54;20535;-77
2021/12/27 09:08:20;;;;;;;9.50;5.93;;;8.30;99.90;;;;;;2613124;54;20158;-78
2021/12/27 09:10:46;;;;;;;6.53;5.93;;;8.10;99.90;;;;;;2613024;46;20630;-80
2021/12/27 09:13:12;;;;;;;7.03;5.97;;;8.20;99.90;;;;;;2614267;54;20161;-77
2021/12/27 09:15:37;;;;;;;6.37;5.67;;;8.10;99.90;;;;;;2613451;54;21230;-77
2021/12/27 09:18:03;;;;;;;7.17;5.90;;;8.20;99.90;;;;;;2613998;54;20440;-78
2021/12/27 09:20:29;;;;;;;6.13;5.60;;;8.10;99.90;;;;;;2614318;54;20147;-78
2021/12/27 09:22:58;;;;;;;6.73;6.03;;;8.10;99.90;;;;;;2613466;39;20859;-79
2021/12/27 09:25:24;;;;;;;8.50;5.83;;;8.40;99.90;;;;;;2612404;39;20773;-77
2021/12/27 09:27:50;;;;;;;6.10;5.50;;;8.40;99.90;;;;;;2612329;54;20485;-76
2021/12/27 09:30:16;;;;;;;6.20;5.67;;;8.70;99.90;;;;;;2608141;47;20518;-78
2021/12/27 09:32:42;;;;;;;6.50;5.90;;;8.70;99.90;;;;;;2611722;39;20853;-79
2021/12/27 09:35:10;;;;;;;7.30;6.20;;;8.20;99.90;;;;;;2610942;54;20414;-80
2021/12/27 09:37:36;;;;;;;7.00;6.30;;;8.50;99.90;;;;;;2613176;54;20400;-78
2021/12/27 09:40:03;;;;;;;5.63;4.40;;;8.50;99.90;;;;;;2612410;54;20422;-79
2021/12/27 09:42:31;;;;;;;6.83;5.70;;;8.70;99.90;;;;;;2612125;31;20916;-79
2021/12/27 09:44:57;;;;;;;5.93;5.43;;;9.20;99.90;;;;;;2611830;54;20411;-77
2021/12/27 09:47:26;;;;;;;8.00;6.07;;;9.80;99.90;;;;;;2611869;54;21741;-77
2021/12/27 09:49:52;;;;;;;8.20;6.23;;;10.40;99.90;;;;;;2611351;54;20422;-79
2021/12/27 09:52:18;;;;;;;6.70;6.10;;;10.70;99.90;;;;;;2612855;54;20407;-79
2021/12/27 09:54:47;;;;;;;5.97;5.37;;;11.00;99.90;;;;;;2613867;54;20513;-79
2021/12/27 09:57:14;;;;;;;5.20;4.70;;;12.10;99.90;;;;;;2612812;47;20437;-78
2021/12/27 09:59:43;;;;;;;5.20;4.60;;;12.30;99.90;;;;;;2614490;39;20803;-80
2021/12/27 10:02:10;;;;;;;5.60;4.27;;;12.60;99.90;;;;;;2613356;47;20416;-79
2021/12/27 10:04:36;;;;;;;6.67;4.70;;;12.90;99.90;;;;;;2613348;54;20416;-77
2021/12/27 10:07:05;;;;;;;4.47;4.10;;;12.20;99.90;;;;;;2613751;54;20446;-80
2021/12/27 10:09:37;;;;;;;4.63;4.03;;;11.90;99.90;;;;;;2611969;47;20435;-79
2021/12/27 10:12:06;;;;;;;5.10;4.70;;;11.40;99.90;;;;;;2611502;54;20418;-81
2021/12/27 10:14:34;;;;;;;5.83;4.83;;;10.50;99.90;;;;;;2610313;54;20412;-81
2021/12/27 10:17:10;;;;;;;5.13;4.63;;;9.80;99.90;;;;;;2614202;54;20415;-83
2021/12/27 10:19:38;;;;;;;6.10;5.00;;;9.10;99.90;;;;;;2611998;54;20445;-80
2021/12/27 10:22:10;;;;;;;4.63;4.13;;;9.00;99.90;;;;;;2612438;54;20440;-79
2021/12/27 10:24:37;;;;;;;5.67;5.27;;;9.00;99.90;;;;;;2612898;54;20543;-78
2021/12/27 10:27:03;;;;;;;5.47;4.37;;;9.10;99.90;;;;;;2611188;54;20421;-79
2021/12/27 10:29:39;;;;;;;6.53;4.77;;;9.30;99.90;;;;;;2611425;54;20422;-78
2021/12/27 10:32:06;;;;;;;6.47;5.20;;;9.60;99.90;;;;;;2611923;47;20438;-77
2021/12/27 10:34:43;;;;;;;5.57;5.07;;;10.10;99.90;;;;;;2612154;54;20407;-79
2021/12/27 10:37:20;;;;;;;5.83;5.23;;;10.00;99.90;;;;;;2612628;54;20414;-75
2021/12/27 10:39:54;;;;;;;5.13;4.63;;;9.60;99.90;;;;;;2614022;54;20398;-78
2021/12/27 10:42:23;;;;;;;5.53;5.03;;;9.60;99.90;;;;;;2616213;54;20439;-80
2021/12/27 10:44:51;;;;;;;5.27;4.77;;;9.60;99.90;;;;;;2616433;54;20454;-80
2021/12/27 10:47:34;;;;;;;6.50;4.77;;;9.80;99.90;;;;;;2616050;47;20426;-77
2021/12/27 10:50:05;;;;;;;5.90;5.40;;;10.10;99.90;;;;;;2615410;54;20462;-77
2021/12/27 10:53:04;;;;;;;5.83;5.30;;;10.10;99.90;;;;;;2614603;47;20427;-76
2021/12/27 10:55:40;;;;;;;5.90;4.63;;;10.30;99.90;;;;;;2613754;47;21001;-79
2021/12/27 10:58:18;;;;;;;5.67;5.07;;;10.20;99.90;;;;;;2614129;54;20506;-77
2021/12/27 11:00:50;;;;;;;4.90;4.50;;;10.70;99.90;;;;;;2614104;54;20431;-79
2021/12/27 11:03:36;;;;;;;4.83;4.27;;;11.50;99.90;;;;;;2613337;54;20418;-79
2021/12/27 11:06:04;;;;;;;5.03;4.57;;;12.20;99.90;;;;;;2614027;54;20434;-77
2021/12/27 11:08:31;;;;;;;6.13;5.20;;;12.40;99.90;;;;;;2613406;54;20410;-78
2021/12/27 11:10:58;;;;;;;6.13;4.77;;;12.10;99.90;;;;;;2614196;54;20457;-78
2021/12/27 11:13:25;;;;;;;4.67;3.63;;;11.20;99.90;;;;;;2614984;54;20990;-78
2021/12/27 11:15:51;;;;;;;4.60;4.20;;;10.70;99.90;;;;;;2614509;46;20466;-76
2021/12/27 11:18:18;;;;;;;4.63;4.20;;;10.60;99.90;;;;;;2614115;54;20407;-78
2021/12/27 11:20:47;;;;;;;4.57;4.13;;;10.50;99.90;;;;;;2614664;54;20419;-78
2021/12/27 11:23:14;;;;;;;4.00;3.57;;;10.70;99.90;;;;;;2614042;54;20439;-79
2021/12/27 11:25:43;;;;;;;3.97;3.57;;;10.50;99.90;;;;;;2614654;54;20420;-76
2021/12/27 11:28:26;;;;;;;5.00;4.50;;;10.40;99.90;;;;;;2615062;54;20419;-78
2021/12/27 11:30:52;;;;;;;4.40;3.67;;;11.10;99.90;;;;;;2613826;47;20487;-79
2021/12/27 11:33:20;;;;;;;5.50;3.40;;;11.30;99.90;;;;;;2613658;54;20441;-77
2021/12/27 11:35:56;;;;;;;4.37;3.97;;;11.30;99.90;;;;;;2614271;54;20420;-79
2021/12/27 11:38:38;;;;;;;4.33;3.93;;;11.00;99.90;;;;;;2613058;47;20431;-77
2021/12/27 11:41:07;;;;;;;3.77;3.47;;;10.90;99.90;;;;;;2613717;54;20395;-79
2021/12/27 11:43:55;;;;;;;4.43;3.70;;;10.80;99.90;;;;;;2614772;54;21067;-76
2021/12/27 11:46:23;;;;;;;3.80;3.47;;;11.70;99.90;;;;;;2614998;54;20416;-78
2021/12/27 11:48:52;;;;;;;4.10;3.70;;;12.40;99.90;;;;;;2613999;54;20984;-79
2021/12/27 11:51:31;;;;;;;4.13;3.83;;;11.70;99.90;;;;;;2614378;54;20408;-79
2021/12/27 11:53:59;;;;;;;3.20;2.97;;;11.60;99.90;;;;;;2614333;47;20445;-79
2021/12/27 11:56:40;;;;;;;4.77;3.40;;;11.40;99.90;;;;;;2614901;54;20471;-79
2021/12/27 11:59:27;;;;;;;3.80;3.50;;;11.40;99.90;;;;;;2615057;54;20418;-77
2021/12/27 12:01:55;;;;;;;9.40;3.63;;;11.20;99.90;;;;;;2613805;54;20960;-81
2021/12/27 12:04:41;;;;;;;3.87;3.57;;;11.40;99.90;;;;;;2615637;54;20405;-76
2021/12/27 12:07:09;;;;;;;3.47;3.17;;;11.80;99.90;;;;;;2613934;54;20427;-78
2021/12/27 12:09:50;;;;;;;4.30;4.00;;;11.30;99.90;;;;;;2613101;54;20495;-78
2021/12/27 12:12:16;;;;;;;3.60;3.30;;;11.50;99.90;;;;;;2613923;47;20534;-79
2021/12/27 12:14:43;;;;;;;4.20;3.90;;;11.60;99.90;;;;;;2614551;54;20948;-76
2021/12/27 12:17:14;;;;;;;3.73;3.43;;;12.30;99.90;;;;;;2613853;54;20415;-76
2021/12/27 12:19:46;;;;;;;3.10;2.90;;;13.60;99.90;;;;;;2615613;54;20471;-78
2021/12/27 12:22:33;;;;;;;3.77;3.10;;;14.10;99.90;;;;;;2614003;47;20458;-76
2021/12/27 12:25:25;;;;;;;3.27;2.97;;;13.60;99.90;;;;;;2613781;47;20978;-76
2021/12/27 12:27:58;;;;;;;4.70;4.30;;;12.40;99.90;;;;;;2614760;39;21127;-79
2021/12/27 12:30:27;;;;;;;3.97;3.57;;;11.60;99.90;;;;;;2614771;47;20968;-77
2021/12/27 12:33:26;;;;;;;3.57;3.20;;;11.10;99.90;;;;;;2613359;54;20535;-77
2021/12/27 12:36:01;;;;;;;3.87;3.30;;;11.90;99.90;;;;;;2613379;54;20886;-78
2021/12/27 12:38:35;;;;;;;4.07;3.77;;;12.40;99.90;;;;;;2612926;54;20422;-79
2021/12/27 12:41:10;;;;;;;4.53;4.13;;;12.80;99.90;;;;;;2613890;54;20430;-77
2021/12/27 12:43:41;;;;;;;3.80;3.50;;;12.20;99.90;;;;;;2613602;54;20422;-78
2021/12/27 12:46:11;;;;;;;3.93;3.63;;;12.00;99.90;;;;;;2613328;54;20418;-76
2021/12/27 12:48:36;;;;;;;5.47;3.07;;;12.10;99.90;;;;;;2613160;54;20450;-78
2021/12/27 12:51:02;;;;;;;4.00;3.70;;;14.50;99.90;;;;;;2613136;54;20387;-77
2021/12/27 12:53:30;;;;;;;3.40;3.10;;;16.50;99.90;;;;;;2612707;47;20166;-77
2021/12/27 12:56:01;;;;;;;3.33;3.10;;;17.70;90.80;;;;;;2614260;31;20640;-78
2021/12/27 12:58:35;;;;;;;3.20;2.90;;;17.60;90.40;;;;;;2613293;54;20614;-79
2021/12/27 13:01:07;;;;;;;3.00;2.80;;;16.30;94.50;;;;;;2613336;54;20421;-77
2021/12/27 13:03:34;;;;;;;2.97;2.77;;;15.50;99.90;;;;;;2612459;54;20415;-83